Time;durP1;ratioP1;P1;durP2;ratioP2;P2;SDS_P1;SDS_P2;PMS_P1;PMS_P2;Temp;Humidity;BMP_temperature;BMP_pressure;BME280_temperature;BME280_humidity;BME280_pressure;Samples;Min_cycle;Max_cycle;Signal;HPM_P1;HPM_P2
2022/05/23 00:00:22;;;;;;;10.93;9.80;;;;;;;13.63;65.46;94396.97;5072883;28;20528;-68
2022/05/23 00:02:48;;;;;;;10.70;9.02;;;;;;;13.64;65.15;94388.16;5071262;28;20032;-68
2022/05/23 00:05:14;;;;;;;10.25;9.15;;;;;;;13.62;65.14;94397.91;5073178;28;20078;-68
2022/05/23 00:07:42;;;;;;;10.68;8.52;;;;;;;13.46;65.26;94392.63;5091696;28;20202;-68
2022/05/23 00:10:08;;;;;;;9.40;8.45;;;;;;;13.39;65.09;94390.63;5074844;28;20046;-68
2022/05/23 00:12:33;;;;;;;10.45;8.43;;;;;;;13.39;65.18;94395.84;5053569;28;20032;-68
2022/05/23 00:14:59;;;;;;;10.35;8.27;;;;;;;13.44;65.11;94398.00;5054596;28;20452;-68
2022/05/23 00:17:24;;;;;;;12.45;7.90;;;;;;;13.34;65.60;94403.31;5072193;28;20035;-68
2022/05/23 00:19:50;;;;;;;9.00;7.60;;;;;;;13.31;65.62;94389.75;5072602;28;20441;-68
2022/05/23 00:22:16;;;;;;;8.93;7.78;;;;;;;13.24;65.76;94396.56;5089130;28;20485;-70
2022/05/23 00:24:42;;;;;;;9.98;7.80;;;;;;;13.19;65.94;94399.59;5074268;28;20432;-68
2022/05/23 00:27:08;;;;;;;8.77;7.88;;;;;;;13.12;65.72;94385.53;5069956;28;20020;-68
2022/05/23 00:29:34;;;;;;;8.43;7.53;;;;;;;13.17;65.56;94388.50;5054344;28;20056;-68
2022/05/23 00:37:27;;;;;;;10.48;7.00;;;;;;;13.19;66.25;94382.16;5087301;28;20102;-68
2022/05/23 00:39:53;;;;;;;9.73;7.50;;;;;;;13.16;66.07;94372.03;5092350;28;20036;-68
2022/05/23 00:45:04;;;;;;;7.00;6.30;;;;;;;13.01;66.60;94386.63;5070660;28;20529;-68
2022/05/23 00:47:33;;;;;;;7.40;6.47;;;;;;;12.96;66.18;94383.66;5070379;28;20029;-68
2022/05/23 00:49:58;;;;;;;8.95;6.30;;;;;;;12.95;66.42;94392.41;5054410;28;20025;-67
2022/05/23 00:52:29;;;;;;;10.05;6.60;;;;;;;12.90;65.70;94390.28;5070953;28;20039;-68
2022/05/23 00:54:56;;;;;;;6.75;6.10;;;;;;;12.89;65.68;94386.03;5037039;28;20093;-67
2022/05/23 00:57:27;;;;;;;8.10;5.95;;;;;;;12.92;66.42;94388.31;5054586;28;20033;-68
2022/05/23 00:59:53;;;;;;;;;;;;;;;13.00;66.14;94390.19;5054862;28;20093;-68
2022/05/23 01:02:18;;;;;;;7.13;5.57;;;;;;;12.95;65.69;94393.25;5070249;28;19912;-68
2022/05/23 01:04:43;;;;;;;7.40;5.47;;;;;;;12.92;64.76;94385.72;5053545;28;20377;-68
2022/05/23 01:07:09;;;;;;;10.00;5.43;;;;;;;12.93;65.54;94389.97;5087000;28;20043;-68
2022/05/23 01:09:34;;;;;;;11.18;5.78;;;;;;;12.89;65.69;94393.84;5073459;28;20101;-68
2022/05/23 01:12:00;;;;;;;8.15;6.47;;;;;;;12.95;65.69;94387.19;5070393;28;20119;-68
2022/05/23 01:14:26;;;;;;;8.07;6.05;;;;;;;12.83;65.59;94389.25;5070188;28;20110;-67
2022/05/23 01:16:51;;;;;;;9.63;6.80;;;;;;;12.91;65.93;94380.66;5069558;28;20426;-68
2022/05/23 01:19:17;;;;;;;6.88;6.07;;;;;;;12.96;65.83;94387.06;5069744;28;20033;-67
2022/05/23 01:21:54;;;;;;;7.72;5.70;;;;;;;12.88;65.79;94397.44;5082178;28;20039;-67
2022/05/23 01:24:38;;;;;;;9.20;5.50;;;;;;;12.88;64.47;94392.22;5091438;28;20043;-67
2022/05/23 01:27:06;;;;;;;9.52;5.80;;;;;;;12.71;65.15;94380.03;5089404;28;20038;-67
2022/05/23 01:29:31;;;;;;;7.05;5.63;;;;;;;12.63;65.77;94377.34;5067099;28;20086;-68
2022/05/23 01:31:57;;;;;;;6.80;5.55;;;;;;;12.62;66.43;94378.31;5053059;28;20465;-68
2022/05/23 01:34:23;;;;;;;6.55;5.15;;;;;;;12.59;66.92;94370.78;5069471;28;20511;-67
2022/05/23 01:36:48;;;;;;;6.55;5.35;;;;;;;12.41;67.23;94374.22;5070780;28;20116;-69
2022/05/23 01:39:14;;;;;;;6.70;5.95;;;;;;;12.50;67.49;94370.72;5088406;28;20486;-68
2022/05/23 01:41:39;;;;;;;6.95;6.25;;;;;;;12.33;67.60;94376.75;5091061;28;20023;-67
2022/05/23 01:44:05;;;;;;;8.60;6.47;;;;;;;12.44;68.02;94375.72;5088643;28;20044;-68
2022/05/23 01:46:30;;;;;;;6.32;5.65;;;;;;;12.39;67.70;94376.16;5091292;28;20028;-68
2022/05/23 01:48:57;;;;;;;6.97;5.75;;;;;;;12.36;67.89;94355.63;5091187;28;20052;-68
2022/05/23 01:51:22;;;;;;;8.57;6.32;;;;;;;12.32;67.74;94367.31;5089666;28;20413;-68
2022/05/23 01:53:47;;;;;;;10.02;6.55;;;;;;;12.34;67.69;94368.00;5072188;28;20040;-68
2022/05/23 01:56:13;;;;;;;7.30;6.53;;;;;;;12.30;67.73;94382.25;5070675;28;20035;-68
2022/05/23 02:01:25;;;;;;;8.00;6.43;;;;;;;12.32;67.82;94388.16;5090885;28;20042;-68
2022/05/23 02:03:50;;;;;;;7.28;5.78;;;;;;;12.33;68.03;94381.97;5073203;28;20115;-68
2022/05/23 02:06:16;;;;;;;10.13;5.82;;;;;;;12.38;67.29;94378.91;5055442;28;20106;-68
2022/05/23 02:08:41;;;;;;;7.78;5.78;;;;;;;12.35;67.55;94376.63;5090792;28;20032;-68
2022/05/23 02:11:07;;;;;;;5.90;5.30;;;;;;;12.37;67.57;94377.25;5090454;28;20039;-68
2022/05/23 02:13:34;;;;;;;7.95;5.30;;;;;;;12.32;67.84;94369.09;5071917;28;20067;-68
2022/05/23 02:15:59;;;;;;;5.75;5.15;;;;;;;12.34;67.81;94372.34;5051017;28;20056;-68
2022/05/23 02:18:25;;;;;;;6.90;5.00;;;;;;;12.36;68.03;94380.84;5069347;28;20405;-67
2022/05/23 02:20:51;;;;;;;6.18;4.85;;;;;;;12.35;67.76;94385.25;5069205;28;20418;-68
2022/05/23 02:23:16;;;;;;;7.50;5.03;;;;;;;12.37;67.66;94385.94;5070463;28;20025;-68
2022/05/23 02:25:41;;;;;;;6.03;5.10;;;;;;;12.26;67.35;94371.31;5070271;28;20036;-68
2022/05/23 02:28:08;;;;;;;6.53;5.63;;;;;;;12.16;68.10;94386.19;5071315;28;20029;-68
2022/05/23 02:30:33;;;;;;;6.95;5.72;;;;;;;12.22;68.13;94382.19;5056407;28;20033;-68
2022/05/23 02:32:59;;;;;;;10.52;5.90;;;;;;;12.21;68.18;94393.56;5074301;28;20048;-67
2022/05/23 02:35:24;;;;;;;6.93;5.78;;;;;;;12.20;67.99;94386.69;5074955;28;20394;-68
2022/05/23 02:37:49;;;;;;;6.78;5.82;;;;;;;12.06;68.21;94381.06;5092416;28;20028;-68
2022/05/23 02:40:15;;;;;;;7.68;6.38;;;;;;;12.10;68.42;94384.19;5094793;28;20036;-68
2022/05/23 02:42:40;;;;;;;8.70;6.38;;;;;;;12.08;68.50;94384.31;5092424;28;20035;-68
2022/05/23 02:45:06;;;;;;;7.80;6.20;;;;;;;12.10;68.42;94383.38;5092939;28;20064;-68
2022/05/23 02:47:32;;;;;;;6.38;5.70;;;;;;;12.14;68.70;94390.72;5072558;28;20037;-68
2022/05/23 02:49:58;;;;;;;7.00;5.68;;;;;;;12.12;68.95;94378.81;5056226;28;20103;-68
2022/05/23 02:52:24;;;;;;;7.57;5.60;;;;;;;12.20;68.94;94386.69;5056343;28;20115;-68
2022/05/23 02:54:49;;;;;;;8.73;6.55;;;;;;;12.14;69.06;94387.28;5073950;28;20032;-68
2022/05/23 02:57:14;;;;;;;6.85;5.75;;;;;;;12.12;69.18;94395.28;5088546;28;20101;-68
2022/05/23 02:59:40;;;;;;;8.77;5.32;;;;;;;12.11;69.15;94382.38;5094227;28;20040;-68
2022/05/23 03:04:49;;;;;;;7.82;6.07;;;;;;;12.19;68.85;94391.09;5093019;28;20471;-68
2022/05/23 03:07:15;;;;;;;9.15;6.57;;;;;;;12.13;68.88;94368.25;5092741;28;20024;-68
2022/05/23 03:09:43;;;;;;;8.55;6.68;;;;;;;12.19;68.80;94395.50;5081729;28;20036;-68
2022/05/23 03:12:08;;;;;;;11.15;7.30;;;;;;;12.21;69.24;94390.97;5056272;28;20105;-67
2022/05/23 03:14:34;;;;;;;13.20;6.80;;;;;;;12.22;69.22;94397.81;5072631;28;20503;-68
2022/05/23 03:17:03;;;;;;;9.45;6.30;;;;;;;12.36;68.87;94386.88;5072194;28;20029;-68
2022/05/23 03:19:29;;;;;;;10.38;6.03;;;;;;;12.34;68.94;94378.41;5080513;28;20032;-68
2022/05/23 03:27:22;;;;;;;8.80;6.85;;;;;;;12.41;69.42;94383.84;5078181;28;20520;-67
2022/05/23 03:29:47;;;;;;;7.68;6.07;;;;;;;12.51;69.52;94364.56;5092006;28;20032;-68
2022/05/23 03:32:13;;;;;;;8.60;6.30;;;;;;;12.50;69.12;94364.69;5093444;28;20028;-67
2022/05/23 03:34:38;;;;;;;8.75;6.10;;;;;;;12.53;69.35;94357.38;5081270;28;20047;-68
2022/05/23 03:37:05;;;;;;;8.80;6.97;;;;;;;12.58;69.31;94371.78;5071828;28;20032;-68
2022/05/23 03:39:31;;;;;;;6.35;5.72;;;;;;;12.67;69.77;94365.66;5071902;28;20032;-68
2022/05/23 03:41:56;;;;;;;7.60;6.43;;;;;;;12.69;69.71;94377.56;5084835;28;20040;-68
2022/05/23 03:44:21;;;;;;;11.10;7.00;;;;;;;12.79;69.46;94387.91;5072866;28;20055;-68
2022/05/23 03:46:47;;;;;;;7.72;6.93;;;;;;;12.80;68.74;94371.28;5072793;28;20020;-68
2022/05/23 03:49:12;;;;;;;9.20;6.07;;;;;;;12.87;69.24;94369.75;5062840;28;20032;-68
2022/05/23 03:51:38;;;;;;;9.20;6.25;;;;;;;12.82;69.44;94353.72;5071614;28;20457;-68
2022/05/23 03:54:04;;;;;;;9.23;6.80;;;;;;;12.85;68.65;94347.41;5057346;28;20040;-68
2022/05/23 03:56:29;;;;;;;9.15;6.63;;;;;;;12.87;69.19;94354.09;5071258;28;20641;-68
2022/05/23 03:58:55;;;;;;;8.73;6.63;;;;;;;12.99;69.17;94372.91;5091396;28;20028;-68
2022/05/23 04:01:23;;;;;;;7.90;6.78;;;;;;;13.11;68.71;94368.25;5074893;28;20028;-68
2022/05/23 04:03:49;;;;;;;10.73;6.93;;;;;;;13.05;68.56;94372.28;5075109;28;20173;-68
2022/05/23 04:06:14;;;;;;;9.30;6.85;;;;;;;13.06;68.40;94373.09;5091187;28;20028;-68
2022/05/23 04:08:40;;;;;;;9.60;6.55;;;;;;;12.96;69.16;94370.63;5092666;28;20032;-68
2022/05/23 04:11:06;;;;;;;9.77;7.47;;;;;;;13.05;69.61;94376.69;5087242;28;20044;-68
2022/05/23 04:13:31;;;;;;;11.68;8.55;;;;;;;13.17;69.08;94360.63;5071538;28;20029;-68
2022/05/23 04:15:57;;;;;;;9.80;8.55;;;;;;;13.20;69.27;94372.53;5071116;28;20043;-68
2022/05/23 04:18:22;;;;;;;13.82;8.90;;;;;;;13.23;68.70;94347.94;5072260;28;20028;-68
2022/05/23 04:20:48;;;;;;;12.10;8.40;;;;;;;13.61;67.23;94351.94;5070663;28;20120;-68
2022/05/23 04:23:13;;;;;;;14.75;8.65;;;;;;;13.87;66.28;94357.06;5071365;28;20032;-68
2022/05/23 04:25:44;;;;;;;12.05;8.98;;;;;;;14.69;64.45;94365.94;5074539;28;20441;-68
2022/05/23 04:28:09;;;;;;;12.35;7.72;;;;;;;15.50;61.33;94364.19;5070828;28;20494;-68
2022/05/23 04:30:35;;;;;;;9.32;7.88;;;;;;;16.13;59.27;94356.44;5071844;28;20040;-68
2022/05/23 04:35:45;;;;;;;9.65;7.85;;;;;;;17.52;55.04;94342.25;5071811;28;20202;-68
2022/05/23 04:38:11;;;;;;;11.10;7.35;;;;;;;17.75;53.26;94342.97;5071169;28;20032;-68
2022/05/23 04:40:37;;;;;;;10.27;7.78;;;;;;;17.66;53.87;94357.19;5077072;28;20115;-69
2022/05/23 04:43:02;;;;;;;12.63;7.85;;;;;;;17.31;54.32;94345.59;5071107;28;20395;-68
2022/05/23 04:45:28;;;;;;;11.02;6.45;;;;;;;17.18;54.44;94354.88;5072383;28;20056;-68
2022/05/23 04:50:37;;;;;;;11.60;7.20;;;;;;;17.18;54.39;94354.88;5070853;28;20047;-72
2022/05/23 04:53:03;;;;;;;9.68;6.80;;;;;;;17.25;54.66;94349.75;5066126;28;20029;-69
2022/05/23 04:55:28;;;;;;;10.30;7.38;;;;;;;17.09;54.41;94353.34;5076668;28;20535;-68
2022/05/23 04:57:58;;;;;;;10.77;7.72;;;;;;;17.09;54.18;94342.84;5063643;28;20032;-67
2022/05/23 05:00:23;;;;;;;9.80;7.60;;;;;;;17.05;58.09;94332.88;5068119;28;20029;-67
2022/05/23 05:02:49;;;;;;;9.10;6.50;;;;;;;17.11;58.54;94329.56;5063679;28;20154;-68
2022/05/23 05:05:16;;;;;;;10.48;7.25;;;;;;;17.26;58.54;94343.50;5059015;28;20478;-67
2022/05/23 05:07:44;;;;;;;10.80;6.82;;;;;;;17.48;57.73;94346.25;5088224;28;20036;-67
2022/05/23 05:10:10;;;;;;;10.35;7.20;;;;;;;17.59;56.33;94343.16;5061229;28;20028;-68
2022/05/23 05:12:35;;;;;;;13.43;6.78;;;;;;;17.86;54.94;94339.13;5087255;28;20422;-68
2022/05/23 05:15:01;;;;;;;11.75;7.45;;;;;;;18.12;54.33;94337.78;5082002;28;20031;-68
2022/05/23 05:17:27;;;;;;;7.50;6.22;;;;;;;18.06;52.15;94337.53;5062010;28;20036;-68
2022/05/23 05:19:53;;;;;;;15.30;6.78;;;;;;;18.23;52.39;94329.44;5086476;28;20500;-68
2022/05/23 05:22:18;;;;;;;9.68;6.38;;;;;;;18.35;53.34;94335.81;5071691;28;20028;-69
2022/05/23 05:24:43;;;;;;;9.40;6.03;;;;;;;18.47;52.39;94330.88;5078820;28;20094;-69
2022/05/23 05:27:10;;;;;;;7.35;5.90;;;;;;;18.57;51.96;94326.13;5073183;28;20069;-68
2022/05/23 05:29:35;;;;;;;10.38;7.05;;;;;;;18.89;51.83;94335.38;5064204;28;20052;-68
2022/05/23 05:32:12;;;;;;;11.30;7.00;;;;;;;19.06;51.27;94324.56;5068224;28;20075;-68
2022/05/23 05:34:57;;;;;;;8.77;5.72;;;;;;;19.25;49.00;94317.81;5048298;28;20418;-68
2022/05/23 05:37:31;;;;;;;7.45;4.93;;;;;;;19.41;48.60;94314.88;5050377;28;20032;-68
2022/05/23 05:39:57;;;;;;;8.10;4.53;;;;;;;19.51;47.15;94322.44;5066318;28;20047;-68
2022/05/23 05:42:31;;;;;;;9.73;5.05;;;;;;;19.68;46.97;94313.25;5072262;28;20482;-68
2022/05/23 05:44:59;;;;;;;6.93;4.18;;;;;;;19.90;46.32;94323.69;5088435;28;20075;-68
2022/05/23 05:47:25;;;;;;;9.13;4.53;;;;;;;20.04;45.77;94320.91;5087583;28;20554;-68
2022/05/23 05:49:53;;;;;;;5.53;4.00;;;;;;;20.28;45.76;94334.56;5071644;28;20032;-68
2022/05/23 05:52:20;;;;;;;6.55;4.35;;;;;;;20.44;45.03;94336.84;5084567;28;20039;-68
2022/05/23 05:54:45;;;;;;;11.40;4.47;;;;;;;20.41;44.68;94333.78;5075169;28;20136;-68
2022/05/23 05:57:11;;;;;;;7.55;4.47;;;;;;;20.24;45.71;94333.34;5075700;28;20024;-69
2022/05/23 05:59:37;;;;;;;7.35;4.32;;;;;;;20.21;46.28;94333.75;5080997;28;20059;-69
2022/05/23 06:02:03;;;;;;;10.32;4.85;;;;;;;20.03;45.03;94339.53;5060478;28;20485;-70
2022/05/23 06:04:28;;;;;;;8.57;4.13;;;;;;;19.95;47.79;94345.00;5062712;28;20302;-68
2022/05/23 06:12:21;;;;;;;19.67;11.57;;;;;;;19.54;51.01;94343.94;5078053;28;20536;-69
2022/05/23 06:14:47;;;;;;;20.40;9.95;;;;;;;19.32;51.53;94334.47;5084443;28;20045;-71
2022/05/23 06:17:12;;;;;;;13.02;8.93;;;;;;;19.33;50.98;94341.34;5083470;28;20027;-68
2022/05/23 06:19:43;;;;;;;14.95;7.80;;;;;;;19.03;48.73;94325.75;5083574;28;20032;-68
2022/05/23 06:22:09;;;;;;;12.05;6.93;;;;;;;19.03;48.51;94323.13;5086627;28;20043;-68
2022/05/23 06:24:35;;;;;;;11.55;7.20;;;;;;;19.11;49.31;94317.72;5079471;28;20414;-68
2022/05/23 06:27:02;;;;;;;14.88;9.05;;;;;;;19.31;50.58;94324.97;5080408;28;20056;-69
2022/05/23 06:29:28;;;;;;;20.23;8.50;;;;;;;19.39;48.12;94306.38;5091948;28;20255;-68
2022/05/23 06:31:53;;;;;;;16.90;6.85;;;;;;;19.54;47.58;94317.59;5089657;28;20020;-68
2022/05/23 06:34:19;;;;;;;19.50;6.78;;;;;;;19.53;48.77;94318.59;5084371;28;20032;-68
2022/05/23 06:36:44;;;;;;;13.52;6.07;;;;;;;19.57;49.51;94313.75;5090204;28;20421;-69
2022/05/23 06:39:10;;;;;;;7.85;5.20;;;;;;;19.63;47.24;94305.88;5084612;28;20527;-68
2022/05/23 06:41:35;;;;;;;13.90;5.38;;;;;;;19.68;46.20;94301.91;5075555;28;20460;-68
2022/05/23 06:44:01;;;;;;;10.73;5.63;;;;;;;19.78;45.26;94302.34;5055931;28;20063;-69
2022/05/23 06:46:26;;;;;;;8.05;5.72;;;;;;;19.79;45.02;94290.81;5078178;28;20032;-69
2022/05/23 06:48:52;;;;;;;11.90;5.70;;;;;;;19.95;45.08;94295.72;5078726;28;20041;-69
2022/05/23 06:51:17;;;;;;;10.23;5.70;;;;;;;19.99;45.78;94289.03;5069878;28;20509;-68
2022/05/23 06:53:43;;;;;;;12.85;6.40;;;;;;;20.14;45.87;94291.53;5086826;28;20036;-69
2022/05/23 06:56:08;;;;;;;13.93;5.65;;;;;;;20.26;45.95;94294.41;5089580;28;20081;-69
2022/05/23 06:58:34;;;;;;;7.28;4.30;;;;;;;20.35;41.94;94293.22;5086577;28;20039;-69
2022/05/23 07:00:59;;;;;;;9.63;2.75;;;;;;;20.47;39.97;94296.88;5086824;28;20035;-71
2022/05/23 07:03:25;;;;;;;9.18;2.80;;;;;;;20.49;38.46;94300.13;5089677;28;20040;-70
2022/05/23 07:14:02;;;;;;;9.25;3.15;;;;;;;21.22;37.76;94294.09;5078865;28;20043;-70
2022/05/23 07:16:29;;;;;;;4.35;2.65;;;;;;;21.45;37.11;94288.38;5087851;28;20032;-70
2022/05/23 07:18:56;;;;;;;5.13;2.85;;;;;;;21.65;36.43;94288.38;5065255;28;20119;-71
2022/05/23 07:21:24;;;;;;;7.78;3.00;;;;;;;21.76;36.59;94290.34;5086181;28;20449;-71
2022/05/23 07:23:49;;;;;;;8.38;3.60;;;;;;;21.92;37.70;94293.53;5090073;28;20032;-73
2022/05/23 07:26:16;;;;;;;5.82;2.72;;;;;;;21.91;36.78;94294.56;5093064;28;20028;-72
2022/05/23 07:28:43;;;;;;;7.30;2.58;;;;;;;22.12;36.00;94307.50;5089465;28;20045;-69
2022/05/23 07:31:09;;;;;;;5.47;2.60;;;;;;;22.25;35.91;94304.00;5075534;28;20497;-69
2022/05/23 07:33:34;;;;;;;8.82;2.92;;;;;;;22.35;34.86;94316.78;5076187;28;20036;-69
2022/05/23 07:36:00;;;;;;;5.18;2.75;;;;;;;22.20;34.63;94307.28;5085006;28;20017;-69
2022/05/23 07:38:26;;;;;;;6.60;2.97;;;;;;;22.32;35.96;94311.94;5056187;28;20405;-70
2022/05/23 07:40:52;;;;;;;11.98;2.85;;;;;;;22.44;35.82;94295.16;5091249;28;20032;-69
2022/05/23 07:43:18;;;;;;;6.28;2.95;;;;;;;22.56;35.08;94286.53;5070699;28;20077;-72
2022/05/23 07:45:43;;;;;;;8.50;2.70;;;;;;;22.69;35.08;94289.91;5090035;28;20486;-71
2022/05/23 07:48:09;;;;;;;6.78;2.72;;;;;;;22.90;35.90;94302.00;5079542;28;20025;-75
2022/05/23 07:50:34;;;;;;;5.80;2.95;;;;;;;23.03;34.85;94297.63;5082699;28;20031;-75
2022/05/23 08:01:12;;;;;;;5.13;2.85;;;;;;;23.37;34.01;94288.34;5061261;28;20036;-73
2022/05/23 08:03:37;;;;;;;5.68;2.70;;;;;;;23.39;35.12;94299.56;5072395;28;20033;-73
2022/05/23 08:06:03;;;;;;;4.60;2.90;;;;;;;23.43;34.98;94284.84;5083234;28;20024;-74
2022/05/23 08:08:28;;;;;;;7.22;3.00;;;;;;;23.61;33.55;94299.94;5063069;28;20040;-74
2022/05/23 08:10:54;;;;;;;3.50;2.70;;;;;;;23.57;34.27;94294.28;5080428;28;20089;-75
2022/05/23 08:13:19;;;;;;;6.93;2.97;;;;;;;23.78;34.14;94303.66;5090779;28;20021;-76
2022/05/23 08:15:45;;;;;;;4.07;2.53;;;;;;;23.71;33.69;94307.41;5080499;28;20406;-72
2022/05/23 08:18:10;;;;;;;6.97;2.83;;;;;;;23.81;35.12;94297.13;5071771;28;20025;-73
2022/05/23 08:20:36;;;;;;;8.32;3.65;;;;;;;23.89;33.96;94319.88;5087169;28;20032;-76
2022/05/23 08:23:02;;;;;;;5.70;2.95;;;;;;;23.92;33.44;94295.56;5078129;28;20055;-73
2022/05/23 08:25:27;;;;;;;5.10;3.03;;;;;;;23.99;34.47;94288.34;5066595;28;20106;-73
2022/05/23 08:27:53;;;;;;;5.45;2.95;;;;;;;24.13;34.46;94291.66;5056110;28;20035;-73
2022/05/23 08:30:18;;;;;;;6.88;2.75;;;;;;;24.15;33.67;94284.25;5065203;28;20036;-74
2022/05/23 08:32:44;;;;;;;7.97;3.00;;;;;;;24.14;33.03;94301.22;5067447;28;20414;-72
2022/05/23 08:35:09;;;;;;;8.43;3.03;;;;;;;23.70;33.28;94300.47;5077221;28;20020;-71
2022/05/23 08:37:36;;;;;;;8.80;2.88;;;;;;;23.68;33.08;94297.22;5073655;28;20024;-71
2022/05/23 08:40:01;;;;;;;7.85;2.55;;;;;;;23.70;32.50;94293.31;5077486;28;20035;-71
2022/05/23 08:42:41;;;;;;;6.05;3.28;;;;;;;23.47;33.81;94288.66;5071271;28;20024;-71
2022/05/23 08:45:27;;;;;;;;;;;;;;;23.62;34.83;94283.84;5070799;28;20061;-71
2022/05/23 08:48:38;;;;;;;7.70;3.15;;;;;;;23.32;34.55;94290.88;5071643;28;19962;-71
2022/05/23 08:51:18;;;;;;;7.43;2.97;;;;;;;23.29;33.59;94294.75;5070398;28;20478;-71
2022/05/23 08:53:54;;;;;;;4.18;2.38;;;;;;;23.26;32.31;94289.06;5072762;28;20035;-71
2022/05/23 08:56:39;;;;;;;6.05;2.58;;;;;;;23.34;32.78;94280.84;5088488;28;20023;-71
2022/05/23 08:59:11;;;;;;;5.70;2.50;;;;;;;23.56;32.59;94284.69;5072119;28;20044;-70
2022/05/23 09:01:48;;;;;;;4.35;2.40;;;;;;;23.66;33.03;94281.56;5071797;28;20416;-71
2022/05/23 09:04:29;;;;;;;3.83;2.38;;;;;;;23.81;34.33;94273.25;5055015;28;20093;-71
2022/05/23 09:06:54;;;;;;;4.10;2.70;;;;;;;23.98;33.98;94270.81;5056304;28;20035;-71
2022/05/23 09:09:21;;;;;;;6.00;2.83;;;;;;;24.06;34.19;94268.66;5072034;28;20040;-71
2022/05/23 09:11:54;;;;;;;7.05;2.80;;;;;;;24.15;33.12;94261.19;5073526;28;20028;-71
2022/05/23 09:14:19;;;;;;;6.65;2.80;;;;;;;24.32;33.79;94264.03;5090418;28;20028;-71
2022/05/23 09:16:49;;;;;;;3.33;2.42;;;;;;;24.52;33.82;94272.56;5073629;28;20036;-71
2022/05/23 09:19:44;;;;;;;8.57;2.90;;;;;;;24.53;31.71;94263.56;5090192;28;20277;-71
2022/05/23 09:22:23;;;;;;;3.53;2.25;;;;;;;24.63;30.00;94259.56;5090193;28;20039;-71
2022/05/23 09:24:53;;;;;;;4.38;2.33;;;;;;;24.57;30.82;94266.56;5074456;28;20359;-72
2022/05/23 09:27:30;;;;;;;4.95;2.30;;;;;;;24.64;30.27;94264.63;5087405;28;20020;-71
2022/05/23 09:29:56;;;;;;;4.60;2.50;;;;;;;24.62;30.76;94260.56;5086550;28;20035;-74
2022/05/23 09:32:26;;;;;;;6.85;2.30;;;;;;;24.56;31.04;94254.34;5068695;28;20105;-71
2022/05/23 09:34:57;;;;;;;4.25;2.50;;;;;;;24.49;31.24;94257.09;5067885;28;20170;-72
2022/05/23 09:37:35;;;;;;;6.07;2.33;;;;;;;24.57;31.27;94255.13;5052331;28;20080;-71
2022/05/23 09:40:01;;;;;;;3.97;1.92;;;;;;;24.58;30.57;94254.91;5070799;28;20032;-72
2022/05/23 09:48:08;;;;;;;4.93;2.35;;;;;;;24.75;30.65;94252.41;5070061;28;20098;-71
2022/05/23 09:50:37;;;;;;;6.15;2.80;;;;;;;24.84;30.75;94259.00;5072367;28;20133;-69
2022/05/23 09:53:03;;;;;;;3.97;2.20;;;;;;;24.81;29.94;94243.53;5071358;28;20035;-70
2022/05/23 09:55:33;;;;;;;4.55;2.20;;;;;;;24.84;30.33;94253.69;5055691;28;20029;-70
2022/05/23 09:58:06;;;;;;;215.73;122.47;;;;;;;24.93;30.26;94251.50;5069343;28;20040;-69
2022/05/23 10:00:39;;;;;;;6.13;3.15;;;;;;;25.00;30.48;94248.75;5053226;28;20714;-70
2022/05/23 10:03:18;;;;;;;13.60;8.00;;;;;;;25.10;29.65;94238.34;5070771;28;20460;-70
2022/05/23 10:05:53;;;;;;;13.02;5.25;;;;;;;25.14;29.50;94242.19;5079708;28;20102;-69
2022/05/23 10:08:39;;;;;;;86.03;33.13;;;;;;;25.24;29.72;94234.47;5053978;28;20017;-69
2022/05/23 10:11:19;;;;;;;8.88;2.58;;;;;;;25.08;29.88;94232.47;5066540;28;20040;-70
2022/05/23 10:13:49;;;;;;;3.67;2.50;;;;;;;25.16;29.93;94240.13;5067035;28;20097;-70
2022/05/23 10:16:18;;;;;;;8.18;2.80;;;;;;;25.20;29.75;94241.28;5055768;28;20037;-70
2022/05/23 10:19:25;;;;;;;6.05;2.38;;;;;;;25.17;29.21;94236.44;5076450;28;20068;-69
2022/05/23 10:22:20;;;;;;;4.95;2.40;;;;;;;25.13;28.78;94222.78;5070853;28;20043;-69
2022/05/23 10:25:04;;;;;;;4.22;2.45;;;;;;;25.18;30.04;94217.63;5080829;28;20032;-69
2022/05/23 10:27:42;;;;;;;8.25;2.70;;;;;;;25.18;30.15;94238.03;5069200;28;20101;-69
2022/05/23 10:30:08;;;;;;;5.90;2.45;;;;;;;25.14;30.52;94223.59;5078003;28;20041;-69
2022/05/23 10:32:46;;;;;;;8.07;2.40;;;;;;;25.18;30.30;94227.41;5071203;28;20425;-69
2022/05/23 10:35:36;;;;;;;4.82;2.20;;;;;;;25.31;30.54;94213.88;5075202;28;20489;-69
2022/05/23 10:43:32;;;;;;;5.63;2.30;;;;;;;25.55;29.31;94198.72;5072953;28;20082;-69
2022/05/23 10:45:59;;;;;;;6.85;2.80;;;;;;;25.53;30.12;94194.69;5089979;28;20040;-70
2022/05/23 10:48:43;;;;;;;4.72;2.05;;;;;;;25.47;29.65;94203.59;5088108;28;20020;-69
2022/05/23 10:51:17;;;;;;;6.22;2.28;;;;;;;25.31;29.34;94213.88;5074263;28;20032;-70
2022/05/23 10:54:06;;;;;;;4.97;2.17;;;;;;;25.24;28.87;94210.56;5092449;28;20032;-70
2022/05/23 10:56:57;;;;;;;3.92;2.05;;;;;;;25.09;29.91;94212.84;5081881;28;20036;-70
2022/05/23 10:59:42;;;;;;;4.28;2.00;;;;;;;25.25;29.63;94193.56;5094089;28;20517;-70
2022/05/23 11:02:35;;;;;;;2.80;2.20;;;;;;;25.26;29.25;94189.84;5092851;28;20050;-71
2022/05/23 11:05:06;;;;;;;10.57;2.15;;;;;;;25.33;30.26;94192.41;5093894;28;20028;-70
2022/05/23 11:07:54;;;;;;;9.98;2.35;;;;;;;25.38;29.50;94195.97;5093994;28;20028;-69
2022/05/23 11:10:34;;;;;;;3.85;2.00;;;;;;;25.33;29.14;94184.44;5092979;28;20262;-70
2022/05/23 11:13:31;;;;;;;2.53;1.83;;;;;;;25.35;27.91;94191.13;5076088;28;20052;-70
2022/05/23 11:15:56;;;;;;;4.35;1.90;;;;;;;25.20;28.69;94193.44;5092704;28;20326;-70
2022/05/23 11:18:28;;;;;;;7.80;2.30;;;;;;;25.24;28.51;94191.97;5092367;28;20036;-70
2022/05/23 11:20:55;;;;;;;8.32;2.17;;;;;;;25.21;28.38;94183.63;5093657;28;20118;-69
2022/05/23 11:23:41;;;;;;;3.85;1.83;;;;;;;25.25;28.48;94184.78;5092490;28;20129;-70
2022/05/23 11:26:17;;;;;;;5.47;2.00;;;;;;;25.33;29.48;94187.09;5092443;28;20032;-70
2022/05/23 11:33:41;;;;;;;4.47;2.20;;;;;;;25.31;27.95;94175.88;5092496;28;20036;-70
2022/05/23 11:34:46;;;;;;;2.53;1.85;;;;;;;25.46;29.45;94181.50;5092516;28;20035;-70
2022/05/23 11:39:56;;;;;;;3.22;1.88;;;;;;;25.59;28.44;94197.19;5076858;28;20465;-69
2022/05/23 11:42:24;;;;;;;4.78;1.85;;;;;;;25.57;27.94;94175.34;5092118;28;20035;-70
2022/05/23 11:44:49;;;;;;;3.85;1.80;;;;;;;25.54;28.26;94185.66;5093160;28;20127;-70
2022/05/23 11:47:28;;;;;;;6.00;2.00;;;;;;;25.54;28.20;94190.97;5093480;28;20115;-69
2022/05/23 11:49:59;;;;;;;6.65;1.85;;;;;;;25.53;27.75;94197.34;5092050;28;20044;-70
2022/05/23 11:52:25;;;;;;;4.15;1.83;;;;;;;25.56;27.11;94186.22;5093123;28;20034;-70
2022/05/23 11:54:51;;;;;;;3.88;1.70;;;;;;;25.64;27.58;94188.53;5091886;28;20032;-70
2022/05/23 11:57:38;;;;;;;5.50;2.33;;;;;;;25.64;27.42;94188.53;5058119;28;20058;-70
2022/05/23 12:00:25;;;;;;;6.80;1.83;;;;;;;25.67;27.78;94198.69;5091664;28;20434;-70
2022/05/23 12:03:06;;;;;;;2.67;1.70;;;;;;;25.58;27.28;94192.13;5092607;28;20121;-70
2022/05/23 12:05:32;;;;;;;3.70;1.75;;;;;;;25.59;26.58;94180.44;5074954;28;20062;-70
2022/05/23 12:07:58;;;;;;;2.40;1.80;;;;;;;25.54;28.10;94205.06;5058064;28;20032;-70
2022/05/23 12:10:24;;;;;;;4.82;2.03;;;;;;;25.53;28.41;94186.69;5091700;28;20035;-70
2022/05/23 12:13:16;;;;;;;4.00;2.00;;;;;;;25.53;28.58;94197.34;5092709;28;20024;-70
2022/05/23 12:15:41;;;;;;;6.38;2.15;;;;;;;25.51;27.43;94191.44;5089446;28;20047;-71
2022/05/23 12:18:07;;;;;;;2.60;1.70;;;;;;;25.49;28.50;94196.19;5092384;28;20024;-70
2022/05/23 12:20:32;;;;;;;4.38;2.15;;;;;;;25.49;27.06;94189.03;5091266;28;20081;-67
2022/05/23 12:23:08;;;;;;;3.40;1.88;;;;;;;25.37;27.26;94183.72;5074221;28;20043;-67
2022/05/23 12:25:34;;;;;;;4.43;1.95;;;;;;;25.40;28.03;94175.28;5074190;28;20040;-67
2022/05/23 12:27:59;;;;;;;3.50;2.40;;;;;;;25.35;28.10;94180.50;5074372;28;20027;-67
2022/05/23 12:30:33;;;;;;;4.82;1.92;;;;;;;25.51;27.30;94189.59;5092736;28;20059;-67
2022/05/23 12:32:58;;;;;;;3.97;2.58;;;;;;;25.60;26.97;94176.72;5092327;28;20064;-67
2022/05/23 12:35:41;;;;;;;7.28;3.67;;;;;;;25.47;26.64;94185.00;5092613;28;20066;-67
2022/05/23 12:38:45;;;;;;;4.38;2.20;;;;;;;25.38;27.58;94169.41;5092128;28;20040;-68
2022/05/23 12:41:23;;;;;;;6.32;2.22;;;;;;;25.40;27.28;94169.94;5041303;28;20036;-67
2022/05/23 12:44:12;;;;;;;5.18;1.85;;;;;;;25.48;27.69;94168.78;5067877;28;20538;-67